Terminal Aerodrome Forecast
Issued by NWS

Home | Current Version | Previous Version | Text Only | Print | Product List | Glossary Off
Versions: 1 2 3 4 5 6 7 8 9 10 11 12 13 14 15 16

001
FTUS41 KCLE 130527
TAFFDY
TAF
KFDY 130527Z 1306/1406 30012KT P6SM SCT035
     FM131600 30014G22KT P6SM VCSH BKN035 PROB30 1318/1321 3SM -SHSN
     FM132300 28008KT P6SM BKN035=

USA.gov is the U.S. government's official web portal to all federal, state and local government web resources and services.